Time;durP1;ratioP1;P1;durP2;ratioP2;P2;SDS_P1;SDS_P2;PMS_P1;PMS_P2;Temp;Humidity;BMP_temperature;BMP_pressure;BME280_temperature;BME280_humidity;BME280_pressure;Samples;Min_cycle;Max_cycle;Signal;HPM_P1;HPM_P2
2023/01/18 00:01:34;;;;;;;;;;;18.00;45.60;;;;;;5014853;28;20017;-52
2023/01/18 00:03:59;;;;;;;;;;;18.00;45.80;;;;;;5009609;28;19914;-52
2023/01/18 00:06:26;;;;;;;;;;;18.00;45.80;;;;;;5012081;28;19949;-52
2023/01/18 00:08:52;;;;;;;;;;;17.90;45.80;;;;;;5011511;28;19914;-52
2023/01/18 00:11:18;;;;;;;;;;;17.90;45.70;;;;;;4998536;28;20043;-53
2023/01/18 00:13:43;;;;;;;;;;;17.90;45.80;;;;;;5009713;28;20361;-52
2023/01/18 00:16:18;;;;;;;;;;;17.90;46.00;;;;;;5006653;28;20366;-52
2023/01/18 00:18:48;;;;;;;;;;;17.80;46.00;;;;;;4995594;28;19962;-52
2023/01/18 00:21:14;;;;;;;;;;;17.80;46.00;;;;;;4995250;28;19972;-54
2023/01/18 00:23:39;;;;;;;;;;;17.70;46.00;;;;;;5004746;28;20426;-54
2023/01/18 00:26:09;;;;;;;;;;;17.70;46.10;;;;;;5004701;28;20282;-54
2023/01/18 00:28:34;;;;;;;;;;;17.70;46.10;;;;;;4996191;28;19959;-54
2023/01/18 00:31:00;;;;;;;;;;;17.70;45.90;;;;;;5004689;28;19926;-54
2023/01/18 00:33:25;;;;;;;;;;;17.70;46.10;;;;;;5008128;28;19920;-52
2023/01/18 00:35:57;;;;;;;;;;;17.60;46.20;;;;;;5008142;28;20461;-52
2023/01/18 00:38:23;;;;;;;;;;;17.60;46.20;;;;;;5010689;28;19936;-52
2023/01/18 00:40:48;;;;;;;;;;;17.60;46.40;;;;;;4994898;28;19914;-54
2023/01/18 00:45:57;;;;;;;;;;;17.50;46.40;;;;;;4994526;28;20381;-52
2023/01/18 00:48:23;;;;;;;;;;;17.50;46.40;;;;;;4999717;28;19981;-52
2023/01/18 00:50:48;;;;;;;;;;;17.40;46.70;;;;;;5004023;28;19918;-52
2023/01/18 00:53:13;;;;;;;;;;;17.40;46.40;;;;;;4995324;28;19924;-53
2023/01/18 00:55:39;;;;;;;;;;;17.40;46.60;;;;;;4993955;28;19925;-54
2023/01/18 00:58:04;;;;;;;;;;;17.40;47.20;;;;;;5001541;28;19929;-54
2023/01/18 01:00:31;;;;;;;;;;;17.40;46.60;;;;;;4998307;28;20329;-54
2023/01/18 01:02:57;;;;;;;;;;;17.40;46.50;;;;;;4997430;28;19917;-54
2023/01/18 01:08:07;;;;;;;;;;;17.30;46.60;;;;;;4994372;28;19937;-52
2023/01/18 01:10:33;;;;;;;;;;;17.30;46.80;;;;;;5008587;28;20377;-52
2023/01/18 01:26:40;;;;;;;;;;;17.20;46.80;;;;;;5009280;28;19924;-52
2023/01/18 01:29:05;;;;;;;;;;;17.20;46.60;;;;;;5013206;28;19914;-52
2023/01/18 01:31:31;;;;;;;;;;;17.20;46.60;;;;;;4995240;28;20271;-52
2023/01/18 01:33:56;;;;;;;;;;;17.10;46.70;;;;;;4998958;28;20305;-52
2023/01/18 01:36:26;;;;;;;;;;;17.10;46.70;;;;;;5000656;28;19917;-52
2023/01/18 01:38:52;;;;;;;;;;;17.10;46.50;;;;;;5006135;28;19945;-52
2023/01/18 01:41:25;;;;;;;;;;;17.10;46.70;;;;;;4993473;28;19914;-52
2023/01/18 01:43:53;;;;;;;;;;;17.10;46.40;;;;;;5002345;28;19976;-52
2023/01/18 01:46:37;;;;;;;;;;;17.00;46.50;;;;;;4993630;28;19910;-52
2023/01/18 01:49:10;;;;;;;;;;;17.00;46.50;;;;;;5009307;28;20453;-52
2023/01/18 01:51:37;;;;;;;;;;;17.00;46.50;;;;;;5011360;28;19921;-53
2023/01/18 01:54:03;;;;;;;;;;;17.00;46.40;;;;;;5043571;28;19909;-51
2023/01/18 01:56:28;;;;;;;;;;;16.90;46.60;;;;;;5036898;28;20362;-52
2023/01/18 01:58:54;;;;;;;;;;;16.90;46.70;;;;;;4999296;28;19914;-54
2023/01/18 02:01:20;;;;;;;;;;;16.80;46.70;;;;;;5011329;28;19959;-52
2023/01/18 02:03:45;;;;;;;;;;;16.80;46.60;;;;;;4996763;28;19965;-51
2023/01/18 02:06:18;;;;;;;;;;;16.80;46.40;;;;;;5027370;28;19914;-53
2023/01/18 02:08:46;;;;;;;;;;;16.80;46.60;;;;;;5010046;28;20230;-53
2023/01/18 02:11:11;;;;;;;;;;;16.80;46.60;;;;;;5041325;28;19909;-52
2023/01/18 02:13:36;;;;;;;;;;;16.70;46.30;;;;;;5004913;28;20592;-52
2023/01/18 02:16:25;;;;;;;;;;;16.90;46.10;;;;;;4997721;28;20303;-53
2023/01/18 02:18:57;;;;;;;;;;;17.00;45.60;;;;;;4998588;28;19918;-53
2023/01/18 02:21:25;;;;;;;;;;;17.20;46.00;;;;;;4995734;28;19918;-53
2023/01/18 02:23:53;;;;;;;;;;;17.50;45.40;;;;;;5004173;28;20301;-53
2023/01/18 02:26:37;;;;;;;;;;;17.90;44.70;;;;;;5003942;28;19917;-53
2023/01/18 02:29:05;;;;;;;;;;;18.40;44.00;;;;;;5003782;28;19918;-53
2023/01/18 02:31:36;;;;;;;;;;;19.10;42.90;;;;;;5006874;28;19924;-52
2023/01/18 02:34:40;;;;;;;;;;;19.60;41.80;;;;;;5035773;28;19914;-53
2023/01/18 02:37:09;;;;;;;;;;;20.10;41.10;;;;;;5027920;28;19936;-53
2023/01/18 02:39:40;;;;;;;;;;;20.30;40.40;;;;;;5031678;28;20270;-53
2023/01/18 02:47:42;;;;;;;;;;;19.70;41.30;;;;;;5004595;28;19968;-52
2023/01/18 02:50:07;;;;;;;;;;;19.60;41.70;;;;;;5036185;28;19917;-53
2023/01/18 02:52:39;;;;;;;;;;;19.60;42.00;;;;;;5003498;28;20673;-53
2023/01/18 02:55:06;;;;;;;;;;;19.50;41.80;;;;;;5009392;28;19919;-53
2023/01/18 02:57:31;;;;;;;;;;;19.50;42.10;;;;;;5033860;28;20261;-53
2023/01/18 02:59:57;;;;;;;;;;;19.50;41.90;;;;;;5009285;28;19936;-53
2023/01/18 03:02:23;;;;;;;;;;;19.60;42.00;;;;;;5014924;28;19917;-53
2023/01/18 03:04:54;;;;;;;;;;;19.70;41.80;;;;;;5014907;28;20381;-53
2023/01/18 03:07:21;;;;;;;;;;;19.70;41.40;;;;;;4996297;28;19909;-53
2023/01/18 03:09:47;;;;;;;;;;;19.90;41.30;;;;;;5014058;28;19933;-53
2023/01/18 03:12:16;;;;;;;;;;;19.90;41.00;;;;;;5036695;28;19913;-53
2023/01/18 03:15:01;;;;;;;;;;;19.90;41.20;;;;;;5014739;28;19959;-53
2023/01/18 03:17:35;;;;;;;;;;;19.90;41.30;;;;;;5013968;28;19910;-53
2023/01/18 03:20:07;;;;;;;;;;;19.70;41.40;;;;;;5046926;28;20396;-53
2023/01/18 03:25:21;;;;;;;;;;;19.40;41.90;;;;;;5014373;28;20075;-53
2023/01/18 03:36:00;;;;;;;;;;;18.90;42.80;;;;;;5005373;28;19922;-53
2023/01/18 03:38:25;;;;;;;;;;;18.80;43.00;;;;;;5036425;28;19918;-53
2023/01/18 03:40:50;;;;;;;;;;;18.60;42.90;;;;;;5045102;28;20349;-53
2023/01/18 03:43:16;;;;;;;;;;;18.60;42.80;;;;;;5018666;28;19925;-53
2023/01/18 03:45:42;;;;;;;;;;;18.40;42.80;;;;;;5039015;28;19959;-53
2023/01/18 03:48:08;;;;;;;;;;;18.40;43.00;;;;;;5039183;28;20402;-52
2023/01/18 03:50:50;;;;;;;;;;;18.30;43.00;;;;;;5009222;28;20771;-52
2023/01/18 03:53:19;;;;;;;;;;;18.30;43.20;;;;;;5010669;28;19974;-54
2023/01/18 03:55:48;;;;;;;;;;;18.20;43.40;;;;;;4998824;28;20009;-52
2023/01/18 03:58:14;;;;;;;;;;;18.30;43.50;;;;;;4997950;28;19918;-52
2023/01/18 04:00:39;;;;;;;;;;;18.30;43.70;;;;;;5036611;28;19913;-52
2023/01/18 04:03:05;;;;;;;;;;;18.30;44.00;;;;;;4999134;28;19925;-52
2023/01/18 04:05:30;;;;;;;;;;;18.40;43.90;;;;;;5001700;28;19927;-53
2023/01/18 04:07:56;;;;;;;;;;;18.50;43.50;;;;;;5001629;28;19914;-53
2023/01/18 04:10:21;;;;;;;;;;;18.60;43.50;;;;;;5001906;28;19913;-53
2023/01/18 04:12:47;;;;;;;;;;;18.70;43.30;;;;;;5038476;28;19914;-52
2023/01/18 04:15:12;;;;;;;;;;;18.70;43.40;;;;;;5014074;28;20527;-51
2023/01/18 04:17:38;;;;;;;;;;;18.80;43.30;;;;;;5012106;28;20357;-52
2023/01/18 04:20:04;;;;;;;;;;;18.90;43.20;;;;;;5007966;28;20378;-54
2023/01/18 04:22:29;;;;;;;;;;;18.90;43.20;;;;;;5024146;28;19929;-53
2023/01/18 04:24:55;;;;;;;;;;;18.80;42.90;;;;;;4998919;28;19920;-53
2023/01/18 04:27:20;;;;;;;;;;;18.80;42.90;;;;;;5013826;28;20008;-53
2023/01/18 04:29:46;;;;;;;;;;;18.90;42.90;;;;;;5012034;28;19916;-53
2023/01/18 04:32:11;;;;;;;;;;;18.80;43.00;;;;;;4994271;28;19921;-53
2023/01/18 04:34:36;;;;;;;;;;;18.70;42.90;;;;;;4995580;28;20033;-53
2023/01/18 04:37:02;;;;;;;;;;;18.70;43.00;;;;;;5002744;28;19920;-53
2023/01/18 04:39:27;;;;;;;;;;;18.70;43.00;;;;;;5000382;28;19913;-53
2023/01/18 04:41:53;;;;;;;;;;;18.60;43.20;;;;;;5009569;28;19925;-53
2023/01/18 04:44:18;;;;;;;;;;;18.50;43.30;;;;;;4998309;28;19924;-53
2023/01/18 04:46:44;;;;;;;;;;;18.50;43.20;;;;;;5013300;28;19914;-53
2023/01/18 04:49:10;;;;;;;;;;;18.40;43.60;;;;;;5010453;28;19909;-53
2023/01/18 04:51:37;;;;;;;;;;;18.40;43.70;;;;;;5005315;28;19918;-53
2023/01/18 04:54:02;;;;;;;;;;;18.40;43.30;;;;;;4995612;28;19921;-53
2023/01/18 04:56:27;;;;;;;;;;;18.30;43.40;;;;;;4993657;28;19918;-54
2023/01/18 04:58:53;;;;;;;;;;;18.30;43.50;;;;;;4996723;28;19918;-53
2023/01/18 05:01:18;;;;;;;;;;;18.30;43.10;;;;;;4997321;28;19918;-54
2023/01/18 05:03:44;;;;;;;;;;;18.20;43.40;;;;;;5037743;28;20288;-53
2023/01/18 05:06:10;;;;;;;;;;;18.20;43.40;;;;;;4999737;28;19914;-54
2023/01/18 05:08:39;;;;;;;;;;;18.20;43.60;;;;;;4994150;28;20008;-54
2023/01/18 05:11:06;;;;;;;;;;;18.20;43.80;;;;;;4998863;28;20270;-53
2023/01/18 05:13:31;;;;;;;;;;;18.20;43.80;;;;;;5006541;28;19918;-53
2023/01/18 05:15:57;;;;;;;;;;;18.20;44.00;;;;;;5012243;28;20458;-53
2023/01/18 05:18:22;;;;;;;;;;;18.20;44.10;;;;;;5011449;28;19914;-53
2023/01/18 05:20:48;;;;;;;;;;;18.20;44.20;;;;;;5002486;28;19917;-54
2023/01/18 05:23:13;;;;;;;;;;;18.20;44.20;;;;;;5001500;28;19932;-54
2023/01/18 05:25:39;;;;;;;;;;;18.20;44.10;;;;;;5007687;28;19914;-53
2023/01/18 05:28:05;;;;;;;;;;;18.20;44.00;;;;;;5000363;28;19917;-54
2023/01/18 05:30:30;;;;;;;;;;;18.30;43.90;;;;;;5009820;28;19917;-54
2023/01/18 05:32:56;;;;;;;;;;;18.30;43.80;;;;;;4994019;28;20044;-53
2023/01/18 05:35:21;;;;;;;;;;;18.30;43.60;;;;;;4996690;28;19964;-52
2023/01/18 05:37:47;;;;;;;;;;;18.30;43.20;;;;;;5002257;28;19914;-53
2023/01/18 05:40:13;;;;;;;;;;;18.40;43.60;;;;;;4995917;28;19918;-53
2023/01/18 05:42:38;;;;;;;;;;;18.40;43.40;;;;;;5002544;28;19922;-53
2023/01/18 05:45:04;;;;;;;;;;;18.50;43.20;;;;;;5010432;28;19910;-53
2023/01/18 05:47:29;;;;;;;;;;;18.50;43.80;;;;;;5005438;28;19917;-53
2023/01/18 05:49:56;;;;;;;;;;;18.50;43.80;;;;;;5008459;28;19914;-53
2023/01/18 05:52:22;;;;;;;;;;;18.60;43.20;;;;;;4996326;28;20000;-53
2023/01/18 05:54:47;;;;;;;;;;;18.60;43.20;;;;;;5005533;28;20000;-54
2023/01/18 05:57:13;;;;;;;;;;;18.60;43.20;;;;;;5000986;28;20243;-53
2023/01/18 05:59:38;;;;;;;;;;;18.60;43.10;;;;;;4993600;28;19924;-53
2023/01/18 06:02:04;;;;;;;;;;;18.60;43.00;;;;;;5005754;28;19965;-54
2023/01/18 06:04:29;;;;;;;;;;;18.60;43.20;;;;;;4993224;28;19917;-53
2023/01/18 06:06:55;;;;;;;;;;;18.60;42.90;;;;;;5003270;28;20275;-53
2023/01/18 06:09:20;;;;;;;;;;;18.60;43.00;;;;;;4995346;28;19972;-53
2023/01/18 06:11:46;;;;;;;;;;;18.50;43.40;;;;;;5007786;28;19996;-53
2023/01/18 06:14:11;;;;;;;;;;;18.50;43.20;;;;;;5010269;28;19914;-53
2023/01/18 06:16:36;;;;;;;;;;;18.40;43.10;;;;;;4995681;28;19914;-53
2023/01/18 06:19:02;;;;;;;;;;;18.40;43.40;;;;;;4998917;28;19913;-53
2023/01/18 06:21:27;;;;;;;;;;;18.40;43.50;;;;;;4994051;28;19914;-53
2023/01/18 06:23:53;;;;;;;;;;;18.40;43.50;;;;;;4995894;28;19925;-53
2023/01/18 06:26:18;;;;;;;;;;;18.30;43.30;;;;;;5010213;28;19925;-53
2023/01/18 06:28:44;;;;;;;;;;;18.30;43.60;;;;;;5008674;28;19921;-53
2023/01/18 06:31:10;;;;;;;;;;;18.30;43.60;;;;;;4998198;28;19973;-53
2023/01/18 06:33:35;;;;;;;;;;;18.20;43.20;;;;;;4993596;28;19924;-53
2023/01/18 06:36:01;;;;;;;;;;;18.20;43.60;;;;;;4998561;28;19940;-53
2023/01/18 06:38:28;;;;;;;;;;;18.20;43.70;;;;;;4993644;28;20350;-52
2023/01/18 06:40:54;;;;;;;;;;;18.20;43.70;;;;;;5006446;28;19976;-51
2023/01/18 06:43:19;;;;;;;;;;;18.10;43.70;;;;;;5004792;28;20378;-54
2023/01/18 06:45:50;;;;;;;;;;;18.10;43.40;;;;;;4998323;28;19920;-54
2023/01/18 06:48:15;;;;;;;;;;;18.00;43.50;;;;;;4992694;28;19996;-53
2023/01/18 06:50:41;;;;;;;;;;;18.00;43.80;;;;;;4992806;28;19969;-53
2023/01/18 06:53:06;;;;;;;;;;;18.00;43.90;;;;;;5005819;28;19913;-53
2023/01/18 06:55:33;;;;;;;;;;;18.00;43.80;;;;;;4997173;28;19961;-53
2023/01/18 06:58:00;;;;;;;;;;;18.00;43.30;;;;;;5007913;28;20008;-53
2023/01/18 07:00:25;;;;;;;;;;;18.10;43.30;;;;;;5000308;28;19925;-53
2023/01/18 07:02:51;;;;;;;;;;;18.10;43.00;;;;;;5010335;28;19928;-53
2023/01/18 07:05:17;;;;;;;;;;;18.20;43.10;;;;;;5009571;28;19960;-53
2023/01/18 07:07:42;;;;;;;;;;;18.30;43.10;;;;;;5008532;28;19972;-53
2023/01/18 07:10:08;;;;;;;;;;;18.30;43.00;;;;;;5007556;28;19939;-53
2023/01/18 07:12:34;;;;;;;;;;;18.30;43.00;;;;;;5009778;28;19979;-53
2023/01/18 07:14:59;;;;;;;;;;;18.40;42.90;;;;;;5009656;28;19952;-53
2023/01/18 07:17:25;;;;;;;;;;;18.40;43.10;;;;;;5007052;28;19956;-53
2023/01/18 07:19:51;;;;;;;;;;;18.40;43.10;;;;;;5013554;28;19925;-53
2023/01/18 07:22:16;;;;;;;;;;;18.40;42.70;;;;;;4996283;28;20374;-53
2023/01/18 07:24:41;;;;;;;;;;;18.40;42.70;;;;;;5009734;28;19922;-53
2023/01/18 07:27:07;;;;;;;;;;;18.50;43.00;;;;;;5005879;28;19917;-53
2023/01/18 07:29:32;;;;;;;;;;;18.50;42.70;;;;;;5006554;28;19921;-53
2023/01/18 07:31:59;;;;;;;;;;;18.50;42.70;;;;;;5000789;28;19921;-53
2023/01/18 07:34:25;;;;;;;;;;;18.50;42.90;;;;;;5006893;28;20323;-53
2023/01/18 07:36:51;;;;;;;;;;;18.40;42.90;;;;;;5010871;28;19921;-53
2023/01/18 07:39:16;;;;;;;;;;;18.50;42.80;;;;;;5015080;28;19909;-52
2023/01/18 07:41:41;;;;;;;;;;;18.40;43.00;;;;;;4994970;28;19917;-53
2023/01/18 07:44:09;;;;;;;;;;;18.40;43.10;;;;;;5003926;28;19936;-53
2023/01/18 07:46:34;;;;;;;;;;;18.40;42.70;;;;;;4995261;28;20350;-53
2023/01/18 07:49:01;;;;;;;;;;;18.30;43.00;;;;;;5002375;28;19914;-53
2023/01/18 07:51:26;;;;;;;;;;;18.30;43.00;;;;;;5017519;28;19968;-52
2023/01/18 07:53:52;;;;;;;;;;;18.20;42.90;;;;;;5009760;28;19922;-52
2023/01/18 07:56:18;;;;;;;;;;;18.20;42.90;;;;;;5006238;28;19925;-52
2023/01/18 07:58:43;;;;;;;;;;;18.20;42.90;;;;;;5000141;28;19917;-53
2023/01/18 08:01:12;;;;;;;;;;;18.20;42.90;;;;;;5001905;28;19922;-53
2023/01/18 08:03:38;;;;;;;;;;;18.20;43.40;;;;;;5017459;28;19956;-53
2023/01/18 08:06:04;;;;;;;;;;;18.40;43.20;;;;;;5008103;28;19952;-51
2023/01/18 08:08:30;;;;;;;;;;;19.10;42.50;;;;;;5000457;28;19917;-52
2023/01/18 08:10:56;;;;;;;;;;;19.70;41.20;;;;;;5015673;28;19920;-53
2023/01/18 08:13:22;;;;;;;;;;;20.00;40.70;;;;;;5004634;28;20262;-52
2023/01/18 08:15:47;;;;;;;;;;;20.20;40.00;;;;;;4995247;28;19968;-53
2023/01/18 08:18:13;;;;;;;;;;;20.60;39.70;;;;;;5003098;28;19914;-53
2023/01/18 08:20:41;;;;;;;;;;;21.00;38.80;;;;;;5009750;28;19985;-53
2023/01/18 08:23:06;;;;;;;;;;;21.40;38.40;;;;;;5006783;28;19921;-53
2023/01/18 08:25:32;;;;;;;;;;;21.80;37.90;;;;;;5004247;28;19940;-53
2023/01/18 08:27:58;;;;;;;;;;;22.00;37.40;;;;;;5009918;28;19940;-52
2023/01/18 08:30:26;;;;;;;;;;;22.30;37.10;;;;;;5011639;28;19929;-52
2023/01/18 08:32:56;;;;;;;;;;;22.30;37.00;;;;;;5009047;28;20281;-52
2023/01/18 08:35:22;;;;;;;;;;;22.50;36.90;;;;;;4997910;28;19914;-53
2023/01/18 08:37:47;;;;;;;;;;;22.50;36.70;;;;;;4997361;28;20406;-53
2023/01/18 08:40:13;;;;;;;;;;;22.50;36.60;;;;;;4998630;28;19917;-53
2023/01/18 08:42:38;;;;;;;;;;;22.50;36.80;;;;;;5005190;28;19975;-52
2023/01/18 08:45:04;;;;;;;;;;;22.60;36.70;;;;;;4998730;28;19934;-52
2023/01/18 08:47:29;;;;;;;;;;;22.70;36.60;;;;;;5006340;28;20059;-52
2023/01/18 08:49:55;;;;;;;;;;;22.70;36.60;;;;;;5002135;28;20352;-52
2023/01/18 08:52:21;;;;;;;;;;;22.70;36.60;;;;;;4995787;28;19944;-53
2023/01/18 08:54:46;;;;;;;;;;;22.70;36.60;;;;;;4998888;28;19909;-53
2023/01/18 08:57:11;;;;;;;;;;;22.80;36.60;;;;;;4998225;28;20051;-53
2023/01/18 08:59:37;;;;;;;;;;;22.80;36.40;;;;;;5005751;28;19957;-53
2023/01/18 09:02:02;;;;;;;;;;;22.90;36.40;;;;;;5006155;28;19917;-53
2023/01/18 09:04:28;;;;;;;;;;;22.90;36.40;;;;;;4999858;28;20104;-53
2023/01/18 09:06:53;;;;;;;;;;;22.90;36.50;;;;;;4995860;28;19918;-52
2023/01/18 09:09:19;;;;;;;;;;;22.90;36.50;;;;;;5008769;28;19910;-53
2023/01/18 09:11:44;;;;;;;;;;;23.00;36.50;;;;;;5004434;28;19956;-53
2023/01/18 09:14:09;;;;;;;;;;;23.10;36.40;;;;;;5005420;28;19914;-53
2023/01/18 09:16:35;;;;;;;;;;;23.10;36.30;;;;;;5013356;28;19943;-53
2023/01/18 09:19:05;;;;;;;;;;;23.20;36.10;;;;;;5012718;28;19920;-53
2023/01/18 09:21:30;;;;;;;;;;;23.20;36.20;;;;;;5005161;28;19909;-54
2023/01/18 09:23:55;;;;;;;;;;;23.20;36.10;;;;;;5012656;28;19979;-53
2023/01/18 09:26:21;;;;;;;;;;;23.20;36.10;;;;;;5001080;28;19929;-53
2023/01/18 09:28:47;;;;;;;;;;;23.20;36.10;;;;;;5007320;28;19913;-53
2023/01/18 09:31:13;;;;;;;;;;;23.30;36.20;;;;;;5003897;28;19914;-53
2023/01/18 09:33:38;;;;;;;;;;;23.30;36.20;;;;;;5009282;28;19917;-53
2023/01/18 09:36:06;;;;;;;;;;;23.30;36.20;;;;;;4997275;28;19918;-53
2023/01/18 09:38:32;;;;;;;;;;;23.30;36.20;;;;;;5000831;28;19918;-53
2023/01/18 09:40:58;;;;;;;;;;;23.30;36.20;;;;;;4993683;28;20020;-53
2023/01/18 09:43:26;;;;;;;;;;;23.30;36.20;;;;;;5034710;28;20016;-53
2023/01/18 09:45:52;;;;;;;;;;;23.30;36.20;;;;;;5003420;28;19918;-53
2023/01/18 09:48:37;;;;;;;;;;;23.30;36.20;;;;;;5010924;28;20316;-53
2023/01/18 09:51:11;;;;;;;;;;;23.30;36.20;;;;;;5011359;28;20367;-53
2023/01/18 09:54:10;;;;;;;;;;;23.30;36.20;;;;;;5008703;28;19918;-53
2023/01/18 09:56:35;;;;;;;;;;;23.40;36.30;;;;;;5012958;28;19964;-53
2023/01/18 09:59:18;;;;;;;;;;;23.40;37.00;;;;;;4996106;28;20358;-54
2023/01/18 10:01:43;;;;;;;;;;;23.40;36.30;;;;;;5040983;28;19917;-54
2023/01/18 10:04:16;;;;;;;;;;;23.40;36.30;;;;;;5014048;28;19918;-54
2023/01/18 10:06:45;;;;;;;;;;;23.40;36.30;;;;;;5011328;28;20373;-54
2023/01/18 10:09:14;;;;;;;;;;;23.40;36.30;;;;;;5002742;28;19940;-52
2023/01/18 10:11:49;;;;;;;;;;;23.40;36.30;;;;;;5032722;28;19913;-53
2023/01/18 10:14:20;;;;;;;;;;;23.40;36.30;;;;;;5010130;28;20353;-52
2023/01/18 10:16:46;;;;;;;;;;;23.40;36.30;;;;;;5006246;28;20321;-54
2023/01/18 10:19:16;;;;;;;;;;;23.50;36.30;;;;;;4999551;28;20385;-53
2023/01/18 10:21:46;;;;;;;;;;;23.50;36.20;;;;;;5007635;28;20305;-53
2023/01/18 10:24:21;;;;;;;;;;;23.50;36.40;;;;;;5037295;28;19933;-53
2023/01/18 10:26:46;;;;;;;;;;;23.50;36.30;;;;;;5003288;28;19920;-53
2023/01/18 10:29:15;;;;;;;;;;;23.60;36.20;;;;;;4996530;28;19918;-53
2023/01/18 10:31:47;;;;;;;;;;;23.60;36.10;;;;;;5010271;28;19976;-53
2023/01/18 10:34:19;;;;;;;;;;;23.70;36.10;;;;;;5003488;28;19953;-52
2023/01/18 10:36:46;;;;;;;;;;;23.70;36.00;;;;;;5012344;28;20309;-53
2023/01/18 10:39:22;;;;;;;;;;;23.60;36.00;;;;;;5003350;28;19918;-53
2023/01/18 10:41:48;;;;;;;;;;;23.60;35.90;;;;;;5002745;28;19917;-53
2023/01/18 10:44:13;;;;;;;;;;;23.60;36.00;;;;;;5040455;28;20381;-53
2023/01/18 10:46:38;;;;;;;;;;;23.60;36.10;;;;;;4997716;28;20397;-53
2023/01/18 10:49:04;;;;;;;;;;;23.60;36.20;;;;;;5008206;28;20382;-54
2023/01/18 10:51:30;;;;;;;;;;;23.60;36.10;;;;;;5005531;28;20362;-53
2023/01/18 10:53:56;;;;;;;;;;;23.70;36.20;;;;;;5012198;28;19920;-53
2023/01/18 10:56:23;;;;;;;;;;;23.70;36.10;;;;;;5007751;28;20437;-52
2023/01/18 10:58:53;;;;;;;;;;;23.70;35.90;;;;;;5014083;28;19916;-53
2023/01/18 11:01:21;;;;;;;;;;;23.80;36.00;;;;;;5046771;28;19917;-54
2023/01/18 11:03:47;;;;;;;;;;;23.80;35.90;;;;;;5013507;28;19932;-53
2023/01/18 11:06:15;;;;;;;;;;;23.80;35.80;;;;;;5005741;28;19968;-53
2023/01/18 11:08:41;;;;;;;;;;;23.80;35.80;;;;;;5003819;28;20428;-53
2023/01/18 11:11:14;;;;;;;;;;;23.80;35.80;;;;;;5008559;28;19914;-53
2023/01/18 11:13:41;;;;;;;;;;;23.80;36.00;;;;;;5008535;28;19918;-53
2023/01/18 11:16:06;;;;;;;;;;;23.80;36.00;;;;;;5007797;28;19957;-53
2023/01/18 11:18:32;;;;;;;;;;;23.80;36.10;;;;;;5012798;28;19909;-53
2023/01/18 11:20:57;;;;;;;;;;;23.80;36.00;;;;;;5009706;28;19913;-52
2023/01/18 11:23:30;;;;;;;;;;;23.90;36.00;;;;;;4995505;28;19987;-53
2023/01/18 11:25:55;;;;;;;;;;;23.90;35.80;;;;;;5008786;28;19917;-54
2023/01/18 11:28:48;;;;;;;;;;;23.90;35.90;;;;;;5013410;28;19921;-53
2023/01/18 11:31:17;;;;;;;;;;;23.90;35.90;;;;;;5008074;28;19933;-53
2023/01/18 11:33:52;;;;;;;;;;;23.90;35.80;;;;;;5015154;28;19916;-53
2023/01/18 11:36:19;;;;;;;;;;;24.00;35.90;;;;;;5013211;28;19959;-53
2023/01/18 11:38:45;;;;;;;;;;;24.00;35.90;;;;;;5003360;28;19914;-52
2023/01/18 11:41:15;;;;;;;;;;;24.00;35.90;;;;;;4997729;28;19921;-53
2023/01/18 11:43:43;;;;;;;;;;;24.00;35.80;;;;;;5007503;28;20373;-52
2023/01/18 11:46:12;;;;;;;;;;;24.00;35.90;;;;;;5003357;28;20026;-54
2023/01/18 11:48:42;;;;;;;;;;;24.00;36.00;;;;;;5006933;28;19914;-53
2023/01/18 11:51:09;;;;;;;;;;;24.00;36.00;;;;;;5040763;28;19951;-51
2023/01/18 11:53:54;;;;;;;;;;;24.00;35.90;;;;;;5030720;28;20358;-52
2023/01/18 11:56:22;;;;;;;;;;;24.00;35.80;;;;;;5013027;28;20445;-52
2023/01/18 11:58:48;;;;;;;;;;;24.00;35.80;;;;;;4999214;28;20337;-52
2023/01/18 12:01:22;;;;;;;;;;;24.10;36.00;;;;;;5011183;28;19914;-52
2023/01/18 12:03:53;;;;;;;;;;;24.00;35.90;;;;;;5001331;28;19928;-52
2023/01/18 12:06:21;;;;;;;;;;;24.00;35.90;;;;;;5034991;28;19918;-54
2023/01/18 12:08:46;;;;;;;;;;;24.00;35.90;;;;;;5007961;28;19913;-51
2023/01/18 12:11:17;;;;;;;;;;;24.00;36.10;;;;;;4997669;28;19914;-51
2023/01/18 12:14:04;;;;;;;;;;;24.00;35.90;;;;;;5037531;28;20040;-52
2023/01/18 12:16:41;;;;;;;;;;;24.00;36.10;;;;;;5036311;28;20406;-51
2023/01/18 12:19:22;;;;;;;;;;;24.00;36.10;;;;;;5013542;28;20365;-52
2023/01/18 12:22:00;;;;;;;;;;;24.00;36.10;;;;;;5004757;28;19948;-52
2023/01/18 12:24:28;;;;;;;;;;;24.10;36.20;;;;;;5028480;28;19925;-52
2023/01/18 12:27:07;;;;;;;;;;;24.10;36.10;;;;;;5009927;28;19940;-51
2023/01/18 12:29:51;;;;;;;;;;;24.10;36.10;;;;;;5013318;28;19914;-52
2023/01/18 12:32:35;;;;;;;;;;;24.10;35.90;;;;;;5010038;28;19921;-52
2023/01/18 12:35:06;;;;;;;;;;;24.20;35.80;;;;;;5006897;28;20000;-52
2023/01/18 12:37:45;;;;;;;;;;;24.20;35.80;;;;;;5008957;28;20009;-52
2023/01/18 12:40:27;;;;;;;;;;;24.20;35.80;;;;;;5013067;28;19914;-54
2023/01/18 12:43:11;;;;;;;;;;;24.20;35.90;;;;;;5027741;28;20017;-52
2023/01/18 12:45:46;;;;;;;;;;;24.10;36.40;;;;;;5005685;28;20037;-52
2023/01/18 12:48:15;;;;;;;;;;;24.00;36.60;;;;;;5011268;28;19913;-52
2023/01/18 12:50:42;;;;;;;;;;;24.00;36.70;;;;;;5027416;28;20234;-52
2023/01/18 12:53:16;;;;;;;;;;;23.80;36.70;;;;;;5023328;28;20005;-53
2023/01/18 12:55:42;;;;;;;;;;;23.70;37.00;;;;;;5005913;28;19913;-53
2023/01/18 12:58:08;;;;;;;;;;;23.70;37.20;;;;;;5047465;28;19914;-53
2023/01/18 13:00:38;;;;;;;;;;;23.60;37.40;;;;;;5035920;28;20258;-53
2023/01/18 13:03:05;;;;;;;;;;;23.50;37.40;;;;;;5013582;28;20663;-53
2023/01/18 13:05:36;;;;;;;;;;;23.40;37.50;;;;;;5011111;28;19921;-53
2023/01/18 13:08:09;;;;;;;;;;;23.40;37.70;;;;;;5011726;28;19923;-53
2023/01/18 13:10:35;;;;;;;;;;;23.30;37.80;;;;;;5040043;28;20377;-53
2023/01/18 13:13:01;;;;;;;;;;;23.20;37.90;;;;;;5008118;28;19921;-53
2023/01/18 13:15:32;;;;;;;;;;;23.20;38.10;;;;;;5038254;28;19913;-53
2023/01/18 13:18:15;;;;;;;;;;;23.20;38.20;;;;;;5013157;28;19921;-54
2023/01/18 13:21:02;;;;;;;;;;;23.10;38.30;;;;;;5010401;28;20068;-53
2023/01/18 13:23:35;;;;;;;;;;;23.00;38.60;;;;;;5008898;28;19925;-54
2023/01/18 13:26:06;;;;;;;;;;;22.70;38.90;;;;;;5038962;28;19964;-54
2023/01/18 13:28:31;;;;;;;;;;;22.60;39.20;;;;;;5010932;28;19918;-53
2023/01/18 13:30:59;;;;;;;;;;;22.70;39.20;;;;;;5011276;28;19924;-53
2023/01/18 13:33:34;;;;;;;;;;;22.90;38.80;;;;;;5042550;28;19921;-54
2023/01/18 13:36:04;;;;;;;;;;;23.00;38.60;;;;;;5037687;28;19918;-54
2023/01/18 13:38:29;;;;;;;;;;;23.00;38.40;;;;;;5008320;28;20084;-53
2023/01/18 13:41:00;;;;;;;;;;;22.90;38.30;;;;;;4991853;28;20378;-53
2023/01/18 13:43:29;;;;;;;;;;;22.90;38.40;;;;;;5040477;28;19926;-54
2023/01/18 13:46:07;;;;;;;;;;;22.90;38.30;;;;;;5007342;28;19917;-53
2023/01/18 13:48:35;;;;;;;;;;;23.10;38.10;;;;;;5003220;28;19924;-54
2023/01/18 13:51:01;;;;;;;;;;;23.20;37.80;;;;;;4999258;28;19928;-54
2023/01/18 13:53:26;;;;;;;;;;;23.30;37.50;;;;;;5040641;28;19921;-53
2023/01/18 13:55:57;;;;;;;;;;;23.40;37.60;;;;;;4998366;28;19914;-53
2023/01/18 13:58:24;;;;;;;;;;;23.20;37.50;;;;;;4999341;28;20344;-54
2023/01/18 14:00:49;;;;;;;;;;;23.30;37.70;;;;;;5002588;28;19917;-52
2023/01/18 14:03:19;;;;;;;;;;;23.30;37.60;;;;;;5007659;28;19924;-52
2023/01/18 14:05:45;;;;;;;;;;;23.30;37.50;;;;;;5036001;28;20004;-53
2023/01/18 14:08:25;;;;;;;;;;;23.40;37.40;;;;;;5011657;28;19917;-53
2023/01/18 14:10:52;;;;;;;;;;;23.50;37.30;;;;;;5003633;28;19914;-52
2023/01/18 14:13:17;;;;;;;;;;;23.40;37.40;;;;;;5005523;28;19967;-54
2023/01/18 14:15:46;;;;;;;;;;;23.30;37.70;;;;;;5034148;28;19980;-53
2023/01/18 14:18:19;;;;;;;;;;;23.20;38.10;;;;;;5001984;28;20124;-53
2023/01/18 14:21:05;;;;;;;;;;;23.10;38.30;;;;;;5026518;28;20044;-54
2023/01/18 14:23:30;;;;;;;;;;;23.10;38.30;;;;;;5030196;28;20026;-54
2023/01/18 14:25:56;;;;;;;;;;;23.20;38.20;;;;;;5011592;28;19937;-52
2023/01/18 14:28:32;;;;;;;;;;;23.30;38.30;;;;;;5021361;28;19917;-54
2023/01/18 14:30:58;;;;;;;;;;;23.40;38.10;;;;;;5019627;28;20448;-53
2023/01/18 14:33:36;;;;;;;;;;;23.40;37.90;;;;;;5013869;28;19914;-52
2023/01/18 14:36:02;;;;;;;;;;;23.50;37.90;;;;;;5009175;28;19917;-51
2023/01/18 14:38:28;;;;;;;;;;;23.40;38.00;;;;;;5001203;28;20392;-53
2023/01/18 14:40:55;;;;;;;;;;;23.20;38.10;;;;;;5008483;28;19929;-54
2023/01/18 14:43:29;;;;;;;;;;;23.00;38.30;;;;;;5009272;28;19917;-53
2023/01/18 14:45:55;;;;;;;;;;;22.90;38.70;;;;;;5036331;28;20313;-52
2023/01/18 14:48:22;;;;;;;;;;;22.90;38.80;;;;;;5002499;28;19913;-51
2023/01/18 14:50:48;;;;;;;;;;;23.00;38.70;;;;;;5000433;28;20362;-52
2023/01/18 14:53:14;;;;;;;;;;;23.10;38.50;;;;;;5033695;28;19941;-52
2023/01/18 14:55:39;;;;;;;;;;;23.20;38.30;;;;;;5000599;28;19965;-52
2023/01/18 14:58:15;;;;;;;;;;;23.30;38.30;;;;;;5007061;28;19917;-53